sensor_id;sensor_type;location;lat;lon;timestamp;P1;durP1;ratioP1;P2;durP2;ratioP2
58470;SDS011;44258;51.288;12.068;2023-03-19T00:02:54;16.65;;;9.40;;
58470;SDS011;44258;51.288;12.068;2023-03-19T00:08:37;17.38;;;9.15;;
58470;SDS011;44258;51.288;12.068;2023-03-19T00:11:24;18.92;;;8.63;;
58470;SDS011;44258;51.288;12.068;2023-03-19T00:14:11;16.92;;;9.23;;
58470;SDS011;44258;51.288;12.068;2023-03-19T00:16:58;18.33;;;9.95;;
58470;SDS011;44258;51.288;12.068;2023-03-19T00:19:45;19.08;;;10.35;;
58470;SDS011;44258;51.288;12.068;2023-03-19T00:25:20;14.45;;;8.40;;
58470;SDS011;44258;51.288;12.068;2023-03-19T00:28:07;17.45;;;9.30;;
58470;SDS011;44258;51.288;12.068;2023-03-19T00:30:54;16.80;;;9.43;;
58470;SDS011;44258;51.288;12.068;2023-03-19T00:33:41;19.25;;;9.98;;
58470;SDS011;44258;51.288;12.068;2023-03-19T00:36:29;17.58;;;8.77;;
58470;SDS011;44258;51.288;12.068;2023-03-19T00:39:15;19.45;;;9.30;;
58470;SDS011;44258;51.288;12.068;2023-03-19T00:42:04;15.60;;;8.50;;
58470;SDS011;44258;51.288;12.068;2023-03-19T00:44:52;16.50;;;8.85;;
58470;SDS011;44258;51.288;12.068;2023-03-19T00:50:26;17.33;;;8.98;;
58470;SDS011;44258;51.288;12.068;2023-03-19T00:53:19;15.77;;;8.38;;
58470;SDS011;44258;51.288;12.068;2023-03-19T00:56:06;19.65;;;8.90;;
58470;SDS011;44258;51.288;12.068;2023-03-19T00:58:56;17.52;;;9.40;;
58470;SDS011;44258;51.288;12.068;2023-03-19T01:01:43;17.63;;;8.73;;
58470;SDS011;44258;51.288;12.068;2023-03-19T01:07:17;17.30;;;9.13;;
58470;SDS011;44258;51.288;12.068;2023-03-19T01:12:51;17.65;;;9.73;;
58470;SDS011;44258;51.288;12.068;2023-03-19T01:15:40;19.17;;;9.55;;
58470;SDS011;44258;51.288;12.068;2023-03-19T01:18:28;15.48;;;8.80;;
58470;SDS011;44258;51.288;12.068;2023-03-19T01:21:16;19.90;;;8.85;;
58470;SDS011;44258;51.288;12.068;2023-03-19T01:26:50;17.05;;;8.98;;
58470;SDS011;44258;51.288;12.068;2023-03-19T01:32:25;18.65;;;9.90;;
58470;SDS011;44258;51.288;12.068;2023-03-19T01:35:14;17.75;;;9.18;;
58470;SDS011;44258;51.288;12.068;2023-03-19T01:38:02;18.70;;;9.25;;
58470;SDS011;44258;51.288;12.068;2023-03-19T01:40:49;17.27;;;8.88;;
58470;SDS011;44258;51.288;12.068;2023-03-19T01:43:37;19.35;;;9.43;;
58470;SDS011;44258;51.288;12.068;2023-03-19T01:46:25;18.33;;;9.27;;
58470;SDS011;44258;51.288;12.068;2023-03-19T01:49:15;18.65;;;9.23;;
58470;SDS011;44258;51.288;12.068;2023-03-19T01:52:05;17.30;;;8.82;;
58470;SDS011;44258;51.288;12.068;2023-03-19T01:54:54;19.70;;;8.75;;
58470;SDS011;44258;51.288;12.068;2023-03-19T01:57:42;17.30;;;8.85;;
58470;SDS011;44258;51.288;12.068;2023-03-19T02:00:29;16.23;;;8.82;;
58470;SDS011;44258;51.288;12.068;2023-03-19T02:03:19;19.55;;;8.93;;
58470;SDS011;44258;51.288;12.068;2023-03-19T02:06:08;17.02;;;8.93;;
58470;SDS011;44258;51.288;12.068;2023-03-19T02:08:57;17.08;;;8.65;;
58470;SDS011;44258;51.288;12.068;2023-03-19T02:11:45;19.02;;;9.00;;
58470;SDS011;44258;51.288;12.068;2023-03-19T02:14:32;18.60;;;9.35;;
58470;SDS011;44258;51.288;12.068;2023-03-19T02:20:09;16.65;;;8.85;;
58470;SDS011;44258;51.288;12.068;2023-03-19T02:23:05;17.57;;;9.00;;
58470;SDS011;44258;51.288;12.068;2023-03-19T02:26:02;17.75;;;8.45;;
58470;SDS011;44258;51.288;12.068;2023-03-19T02:28:52;18.95;;;9.35;;
58470;SDS011;44258;51.288;12.068;2023-03-19T02:31:39;18.27;;;9.68;;
58470;SDS011;44258;51.288;12.068;2023-03-19T02:34:33;20.50;;;9.10;;
58470;SDS011;44258;51.288;12.068;2023-03-19T02:37:23;16.98;;;9.55;;
58470;SDS011;44258;51.288;12.068;2023-03-19T02:40:15;15.23;;;8.80;;
58470;SDS011;44258;51.288;12.068;2023-03-19T02:43:06;18.17;;;9.40;;
58470;SDS011;44258;51.288;12.068;2023-03-19T02:45:53;17.80;;;9.32;;
58470;SDS011;44258;51.288;12.068;2023-03-19T02:48:40;18.15;;;9.13;;
58470;SDS011;44258;51.288;12.068;2023-03-19T02:51:28;17.67;;;8.57;;
58470;SDS011;44258;51.288;12.068;2023-03-19T02:54:15;17.10;;;8.88;;
58470;SDS011;44258;51.288;12.068;2023-03-19T02:57:03;16.55;;;8.65;;
58470;SDS011;44258;51.288;12.068;2023-03-19T02:59:51;18.38;;;8.98;;
58470;SDS011;44258;51.288;12.068;2023-03-19T03:02:38;18.50;;;9.32;;
58470;SDS011;44258;51.288;12.068;2023-03-19T03:05:26;16.55;;;8.90;;
58470;SDS011;44258;51.288;12.068;2023-03-19T03:11:00;19.25;;;9.07;;
58470;SDS011;44258;51.288;12.068;2023-03-19T03:13:47;20.90;;;10.05;;
58470;SDS011;44258;51.288;12.068;2023-03-19T03:16:35;20.48;;;9.77;;
58470;SDS011;44258;51.288;12.068;2023-03-19T03:19:23;18.05;;;9.35;;
58470;SDS011;44258;51.288;12.068;2023-03-19T03:22:10;19.73;;;9.63;;
58470;SDS011;44258;51.288;12.068;2023-03-19T03:24:57;18.02;;;9.63;;
58470;SDS011;44258;51.288;12.068;2023-03-19T03:27:44;19.75;;;10.20;;
58470;SDS011;44258;51.288;12.068;2023-03-19T03:33:22;20.63;;;9.30;;
58470;SDS011;44258;51.288;12.068;2023-03-19T03:36:09;18.08;;;9.55;;
58470;SDS011;44258;51.288;12.068;2023-03-19T03:38:56;19.25;;;9.95;;
58470;SDS011;44258;51.288;12.068;2023-03-19T03:41:44;18.42;;;9.40;;
58470;SDS011;44258;51.288;12.068;2023-03-19T03:44:31;20.25;;;10.40;;
58470;SDS011;44258;51.288;12.068;2023-03-19T03:50:07;17.58;;;9.50;;
58470;SDS011;44258;51.288;12.068;2023-03-19T03:52:59;19.35;;;9.90;;
58470;SDS011;44258;51.288;12.068;2023-03-19T03:55:46;17.83;;;9.32;;
58470;SDS011;44258;51.288;12.068;2023-03-19T03:58:34;20.90;;;9.88;;
58470;SDS011;44258;51.288;12.068;2023-03-19T04:01:22;18.17;;;9.93;;
58470;SDS011;44258;51.288;12.068;2023-03-19T04:04:09;18.10;;;9.13;;
58470;SDS011;44258;51.288;12.068;2023-03-19T04:06:57;18.60;;;9.75;;
58470;SDS011;44258;51.288;12.068;2023-03-19T04:09:44;19.17;;;9.55;;
58470;SDS011;44258;51.288;12.068;2023-03-19T04:12:31;20.30;;;10.32;;
58470;SDS011;44258;51.288;12.068;2023-03-19T04:15:19;18.80;;;10.07;;
58470;SDS011;44258;51.288;12.068;2023-03-19T04:18:07;19.85;;;10.02;;
58470;SDS011;44258;51.288;12.068;2023-03-19T04:20:54;16.60;;;9.25;;
58470;SDS011;44258;51.288;12.068;2023-03-19T04:23:43;18.70;;;9.75;;
58470;SDS011;44258;51.288;12.068;2023-03-19T04:26:29;21.20;;;10.55;;
58470;SDS011;44258;51.288;12.068;2023-03-19T04:32:04;18.55;;;10.35;;
58470;SDS011;44258;51.288;12.068;2023-03-19T04:34:51;20.52;;;10.23;;
58470;SDS011;44258;51.288;12.068;2023-03-19T04:40:26;16.55;;;10.05;;
58470;SDS011;44258;51.288;12.068;2023-03-19T04:43:13;18.90;;;10.90;;
58470;SDS011;44258;51.288;12.068;2023-03-19T04:46:01;20.33;;;10.60;;
58470;SDS011;44258;51.288;12.068;2023-03-19T04:48:48;19.30;;;10.73;;
58470;SDS011;44258;51.288;12.068;2023-03-19T04:51:36;19.80;;;10.30;;
58470;SDS011;44258;51.288;12.068;2023-03-19T04:54:23;19.80;;;9.90;;
58470;SDS011;44258;51.288;12.068;2023-03-19T04:57:12;21.75;;;10.93;;
58470;SDS011;44258;51.288;12.068;2023-03-19T04:59:59;19.92;;;11.10;;
58470;SDS011;44258;51.288;12.068;2023-03-19T05:02:46;19.77;;;10.63;;
58470;SDS011;44258;51.288;12.068;2023-03-19T05:05:33;20.05;;;10.50;;
58470;SDS011;44258;51.288;12.068;2023-03-19T05:11:07;20.20;;;9.80;;
58470;SDS011;44258;51.288;12.068;2023-03-19T05:19:29;19.35;;;9.57;;
58470;SDS011;44258;51.288;12.068;2023-03-19T05:22:16;17.35;;;9.68;;
58470;SDS011;44258;51.288;12.068;2023-03-19T05:25:03;19.75;;;9.82;;
58470;SDS011;44258;51.288;12.068;2023-03-19T05:27:51;19.65;;;10.55;;
58470;SDS011;44258;51.288;12.068;2023-03-19T05:30:40;20.27;;;10.45;;
58470;SDS011;44258;51.288;12.068;2023-03-19T05:33:27;18.88;;;10.18;;
58470;SDS011;44258;51.288;12.068;2023-03-19T05:39:03;19.35;;;10.07;;
58470;SDS011;44258;51.288;12.068;2023-03-19T05:41:50;19.25;;;9.90;;
58470;SDS011;44258;51.288;12.068;2023-03-19T05:44:37;19.77;;;10.40;;
58470;SDS011;44258;51.288;12.068;2023-03-19T05:47:26;18.45;;;10.52;;
58470;SDS011;44258;51.288;12.068;2023-03-19T05:50:13;23.88;;;10.73;;
58470;SDS011;44258;51.288;12.068;2023-03-19T05:53:00;19.65;;;10.32;;
58470;SDS011;44258;51.288;12.068;2023-03-19T05:55:47;19.77;;;10.43;;
58470;SDS011;44258;51.288;12.068;2023-03-19T05:58:34;21.25;;;10.95;;
58470;SDS011;44258;51.288;12.068;2023-03-19T06:01:24;17.70;;;9.48;;
58470;SDS011;44258;51.288;12.068;2023-03-19T06:04:13;23.20;;;10.23;;
58470;SDS011;44258;51.288;12.068;2023-03-19T06:07:00;20.85;;;9.60;;
58470;SDS011;44258;51.288;12.068;2023-03-19T06:09:46;19.42;;;10.70;;
58470;SDS011;44258;51.288;12.068;2023-03-19T06:12:34;19.83;;;10.13;;
58470;SDS011;44258;51.288;12.068;2023-03-19T06:15:21;17.42;;;9.20;;
58470;SDS011;44258;51.288;12.068;2023-03-19T06:18:08;19.55;;;10.20;;
58470;SDS011;44258;51.288;12.068;2023-03-19T06:23:46;21.60;;;10.77;;
58470;SDS011;44258;51.288;12.068;2023-03-19T06:26:32;19.85;;;10.68;;
58470;SDS011;44258;51.288;12.068;2023-03-19T06:29:20;22.75;;;10.40;;
58470;SDS011;44258;51.288;12.068;2023-03-19T06:34:54;19.03;;;10.40;;
58470;SDS011;44258;51.288;12.068;2023-03-19T06:37:43;22.25;;;11.20;;
58470;SDS011;44258;51.288;12.068;2023-03-19T06:40:30;21.08;;;10.38;;
58470;SDS011;44258;51.288;12.068;2023-03-19T06:43:19;18.10;;;10.13;;
58470;SDS011;44258;51.288;12.068;2023-03-19T06:46:07;19.63;;;9.57;;
58470;SDS011;44258;51.288;12.068;2023-03-19T06:48:55;18.05;;;9.15;;
58470;SDS011;44258;51.288;12.068;2023-03-19T06:51:42;16.60;;;8.95;;
58470;SDS011;44258;51.288;12.068;2023-03-19T06:54:31;21.35;;;8.93;;
58470;SDS011;44258;51.288;12.068;2023-03-19T06:57:21;17.67;;;8.63;;
58470;SDS011;44258;51.288;12.068;2023-03-19T07:00:09;18.98;;;9.02;;
58470;SDS011;44258;51.288;12.068;2023-03-19T07:03:01;17.35;;;8.45;;
58470;SDS011;44258;51.288;12.068;2023-03-19T07:05:48;20.38;;;9.05;;
58470;SDS011;44258;51.288;12.068;2023-03-19T07:08:36;20.15;;;9.77;;
58470;SDS011;44258;51.288;12.068;2023-03-19T07:11:24;20.67;;;9.95;;
58470;SDS011;44258;51.288;12.068;2023-03-19T07:14:11;19.50;;;9.40;;
58470;SDS011;44258;51.288;12.068;2023-03-19T07:16:58;22.15;;;9.88;;
58470;SDS011;44258;51.288;12.068;2023-03-19T07:22:32;17.23;;;8.38;;
58470;SDS011;44258;51.288;12.068;2023-03-19T07:25:19;16.27;;;8.77;;
58470;SDS011;44258;51.288;12.068;2023-03-19T07:28:08;17.33;;;8.57;;
58470;SDS011;44258;51.288;12.068;2023-03-19T07:30:55;14.82;;;7.43;;
58470;SDS011;44258;51.288;12.068;2023-03-19T07:33:44;18.42;;;8.23;;
58470;SDS011;44258;51.288;12.068;2023-03-19T07:36:31;16.70;;;7.70;;
58470;SDS011;44258;51.288;12.068;2023-03-19T07:42:05;15.85;;;8.27;;
58470;SDS011;44258;51.288;12.068;2023-03-19T07:44:54;17.13;;;8.05;;
58470;SDS011;44258;51.288;12.068;2023-03-19T07:47:41;17.45;;;7.50;;
58470;SDS011;44258;51.288;12.068;2023-03-19T07:53:15;18.30;;;7.90;;
58470;SDS011;44258;51.288;12.068;2023-03-19T07:56:05;19.08;;;8.20;;
58470;SDS011;44258;51.288;12.068;2023-03-19T07:58:52;16.15;;;7.53;;
58470;SDS011;44258;51.288;12.068;2023-03-19T08:01:41;18.45;;;8.48;;
58470;SDS011;44258;51.288;12.068;2023-03-19T08:04:28;16.60;;;7.40;;
58470;SDS011;44258;51.288;12.068;2023-03-19T08:07:16;15.30;;;7.88;;
58470;SDS011;44258;51.288;12.068;2023-03-19T08:10:03;18.25;;;8.15;;
58470;SDS011;44258;51.288;12.068;2023-03-19T08:12:51;16.10;;;7.88;;
58470;SDS011;44258;51.288;12.068;2023-03-19T08:15:38;17.27;;;8.20;;
58470;SDS011;44258;51.288;12.068;2023-03-19T08:18:27;15.82;;;7.93;;
58470;SDS011;44258;51.288;12.068;2023-03-19T08:21:14;14.52;;;8.23;;
58470;SDS011;44258;51.288;12.068;2023-03-19T08:24:01;14.40;;;7.68;;
58470;SDS011;44258;51.288;12.068;2023-03-19T08:26:48;17.70;;;7.70;;
58470;SDS011;44258;51.288;12.068;2023-03-19T08:29:35;14.10;;;7.40;;
58470;SDS011;44258;51.288;12.068;2023-03-19T08:32:22;17.30;;;7.80;;
58470;SDS011;44258;51.288;12.068;2023-03-19T08:35:10;16.27;;;7.50;;
58470;SDS011;44258;51.288;12.068;2023-03-19T08:38:00;14.02;;;7.55;;
58470;SDS011;44258;51.288;12.068;2023-03-19T08:40:47;16.70;;;7.50;;
58470;SDS011;44258;51.288;12.068;2023-03-19T08:43:35;15.02;;;7.70;;
58470;SDS011;44258;51.288;12.068;2023-03-19T08:46:22;14.18;;;7.35;;
58470;SDS011;44258;51.288;12.068;2023-03-19T08:49:11;15.43;;;7.30;;
58470;SDS011;44258;51.288;12.068;2023-03-19T08:51:59;14.68;;;7.45;;
58470;SDS011;44258;51.288;12.068;2023-03-19T08:54:46;16.17;;;7.80;;
58470;SDS011;44258;51.288;12.068;2023-03-19T08:57:34;15.25;;;7.60;;
58470;SDS011;44258;51.288;12.068;2023-03-19T09:00:21;16.25;;;7.97;;
58470;SDS011;44258;51.288;12.068;2023-03-19T09:03:09;18.75;;;7.80;;
58470;SDS011;44258;51.288;12.068;2023-03-19T09:08:45;16.33;;;7.47;;
58470;SDS011;44258;51.288;12.068;2023-03-19T09:11:32;15.02;;;6.93;;
58470;SDS011;44258;51.288;12.068;2023-03-19T09:17:07;13.77;;;6.95;;
58470;SDS011;44258;51.288;12.068;2023-03-19T09:19:54;16.33;;;7.60;;
58470;SDS011;44258;51.288;12.068;2023-03-19T09:25:29;14.07;;;6.72;;
58470;SDS011;44258;51.288;12.068;2023-03-19T09:28:16;14.18;;;6.85;;
58470;SDS011;44258;51.288;12.068;2023-03-19T09:30:44;14.27;;;7.20;;
58470;SDS011;44258;51.288;12.068;2023-03-19T09:33:15;16.70;;;7.30;;
58470;SDS011;44258;51.288;12.068;2023-03-19T09:35:42;14.27;;;6.82;;
58470;SDS011;44258;51.288;12.068;2023-03-19T09:38:09;15.27;;;7.38;;
58470;SDS011;44258;51.288;12.068;2023-03-19T09:40:38;19.67;;;8.27;;
58470;SDS011;44258;51.288;12.068;2023-03-19T09:43:17;14.80;;;7.65;;
58470;SDS011;44258;51.288;12.068;2023-03-19T09:45:58;14.75;;;7.43;;
58470;SDS011;44258;51.288;12.068;2023-03-19T09:48:29;16.48;;;7.47;;
58470;SDS011;44258;51.288;12.068;2023-03-19T09:51:02;18.00;;;7.60;;
58470;SDS011;44258;51.288;12.068;2023-03-19T09:53:39;16.45;;;7.65;;
58470;SDS011;44258;51.288;12.068;2023-03-19T09:56:17;14.82;;;7.13;;
58470;SDS011;44258;51.288;12.068;2023-03-19T09:58:44;14.02;;;6.90;;
58470;SDS011;44258;51.288;12.068;2023-03-19T10:01:15;16.08;;;7.28;;
58470;SDS011;44258;51.288;12.068;2023-03-19T10:03:59;14.15;;;8.15;;
58470;SDS011;44258;51.288;12.068;2023-03-19T10:06:43;17.52;;;7.68;;
58470;SDS011;44258;51.288;12.068;2023-03-19T10:09:17;15.70;;;6.80;;
58470;SDS011;44258;51.288;12.068;2023-03-19T10:12:07;17.80;;;7.38;;
58470;SDS011;44258;51.288;12.068;2023-03-19T10:17:41;13.35;;;6.72;;
58470;SDS011;44258;51.288;12.068;2023-03-19T10:20:16;17.95;;;7.03;;
58470;SDS011;44258;51.288;12.068;2023-03-19T10:22:52;14.77;;;6.93;;
58470;SDS011;44258;51.288;12.068;2023-03-19T10:25:26;12.48;;;6.65;;
58470;SDS011;44258;51.288;12.068;2023-03-19T10:27:58;14.68;;;6.95;;
58470;SDS011;44258;51.288;12.068;2023-03-19T10:30:30;12.95;;;6.32;;
58470;SDS011;44258;51.288;12.068;2023-03-19T10:33:02;13.95;;;6.75;;
58470;SDS011;44258;51.288;12.068;2023-03-19T10:35:40;14.27;;;6.43;;
58470;SDS011;44258;51.288;12.068;2023-03-19T10:38:14;13.23;;;5.80;;
58470;SDS011;44258;51.288;12.068;2023-03-19T10:40:47;14.93;;;6.10;;
58470;SDS011;44258;51.288;12.068;2023-03-19T10:43:29;11.93;;;5.65;;
58470;SDS011;44258;51.288;12.068;2023-03-19T10:45:58;10.77;;;5.20;;
58470;SDS011;44258;51.288;12.068;2023-03-19T10:48:25;11.35;;;5.22;;
58470;SDS011;44258;51.288;12.068;2023-03-19T10:50:54;13.30;;;5.57;;
58470;SDS011;44258;51.288;12.068;2023-03-19T10:53:27;13.98;;;5.80;;
58470;SDS011;44258;51.288;12.068;2023-03-19T10:55:59;13.57;;;5.47;;
58470;SDS011;44258;51.288;12.068;2023-03-19T10:58:29;10.30;;;5.20;;
58470;SDS011;44258;51.288;12.068;2023-03-19T11:00:58;11.30;;;4.88;;
58470;SDS011;44258;51.288;12.068;2023-03-19T11:03:32;8.80;;;3.83;;
58470;SDS011;44258;51.288;12.068;2023-03-19T11:06:04;9.85;;;3.65;;
58470;SDS011;44258;51.288;12.068;2023-03-19T11:08:35;9.57;;;3.47;;
58470;SDS011;44258;51.288;12.068;2023-03-19T11:11:03;9.65;;;3.92;;
58470;SDS011;44258;51.288;12.068;2023-03-19T11:13:31;10.82;;;3.50;;
58470;SDS011;44258;51.288;12.068;2023-03-19T11:16:01;8.85;;;4.03;;
58470;SDS011;44258;51.288;12.068;2023-03-19T11:18:34;8.93;;;3.95;;
58470;SDS011;44258;51.288;12.068;2023-03-19T11:21:05;9.57;;;4.25;;
58470;SDS011;44258;51.288;12.068;2023-03-19T11:23:36;9.55;;;4.10;;
58470;SDS011;44258;51.288;12.068;2023-03-19T11:26:05;10.48;;;4.30;;
58470;SDS011;44258;51.288;12.068;2023-03-19T11:28:35;10.57;;;4.05;;
58470;SDS011;44258;51.288;12.068;2023-03-19T11:31:05;8.95;;;3.72;;
58470;SDS011;44258;51.288;12.068;2023-03-19T11:33:46;8.45;;;3.58;;
58470;SDS011;44258;51.288;12.068;2023-03-19T11:36:22;9.00;;;3.78;;
58470;SDS011;44258;51.288;12.068;2023-03-19T11:39:01;13.73;;;4.18;;
58470;SDS011;44258;51.288;12.068;2023-03-19T11:41:49;8.93;;;3.60;;
58470;SDS011;44258;51.288;12.068;2023-03-19T11:44:29;7.10;;;3.22;;
58470;SDS011;44258;51.288;12.068;2023-03-19T11:47:05;9.02;;;3.67;;
58470;SDS011;44258;51.288;12.068;2023-03-19T11:52:21;9.43;;;3.92;;
58470;SDS011;44258;51.288;12.068;2023-03-19T11:55:02;8.32;;;3.45;;
58470;SDS011;44258;51.288;12.068;2023-03-19T11:57:51;6.82;;;3.08;;
58470;SDS011;44258;51.288;12.068;2023-03-19T12:00:35;7.53;;;3.10;;
58470;SDS011;44258;51.288;12.068;2023-03-19T12:06:08;6.75;;;2.70;;
58470;SDS011;44258;51.288;12.068;2023-03-19T12:08:47;7.70;;;3.10;;
58470;SDS011;44258;51.288;12.068;2023-03-19T12:11:21;9.15;;;2.90;;
58470;SDS011;44258;51.288;12.068;2023-03-19T12:14:01;7.97;;;3.30;;
58470;SDS011;44258;51.288;12.068;2023-03-19T12:16:42;6.55;;;2.83;;
58470;SDS011;44258;51.288;12.068;2023-03-19T12:19:29;6.47;;;2.50;;
58470;SDS011;44258;51.288;12.068;2023-03-19T12:22:12;9.25;;;2.47;;
58470;SDS011;44258;51.288;12.068;2023-03-19T12:24:56;5.63;;;2.33;;
58470;SDS011;44258;51.288;12.068;2023-03-19T12:27:33;6.00;;;2.35;;
58470;SDS011;44258;51.288;12.068;2023-03-19T12:30:12;6.22;;;2.35;;
58470;SDS011;44258;51.288;12.068;2023-03-19T12:33:00;5.20;;;2.78;;
58470;SDS011;44258;51.288;12.068;2023-03-19T12:35:40;6.80;;;2.53;;
58470;SDS011;44258;51.288;12.068;2023-03-19T12:38:12;7.72;;;2.50;;
58470;SDS011;44258;51.288;12.068;2023-03-19T12:40:46;4.80;;;2.38;;
58470;SDS011;44258;51.288;12.068;2023-03-19T12:43:24;5.03;;;2.30;;
58470;SDS011;44258;51.288;12.068;2023-03-19T12:45:56;4.60;;;2.30;;
58470;SDS011;44258;51.288;12.068;2023-03-19T12:48:34;4.78;;;2.17;;
58470;SDS011;44258;51.288;12.068;2023-03-19T12:51:09;5.07;;;2.22;;
58470;SDS011;44258;51.288;12.068;2023-03-19T12:53:42;6.28;;;2.33;;
58470;SDS011;44258;51.288;12.068;2023-03-19T12:58:49;6.15;;;2.53;;
58470;SDS011;44258;51.288;12.068;2023-03-19T13:01:22;7.03;;;2.85;;
58470;SDS011;44258;51.288;12.068;2023-03-19T13:03:55;7.78;;;2.90;;
58470;SDS011;44258;51.288;12.068;2023-03-19T13:06:30;5.43;;;2.40;;
58470;SDS011;44258;51.288;12.068;2023-03-19T13:09:03;6.55;;;2.88;;
58470;SDS011;44258;51.288;12.068;2023-03-19T13:11:40;5.47;;;2.30;;
58470;SDS011;44258;51.288;12.068;2023-03-19T13:14:15;7.07;;;2.50;;
58470;SDS011;44258;51.288;12.068;2023-03-19T13:16:50;5.07;;;2.50;;
58470;SDS011;44258;51.288;12.068;2023-03-19T13:19:26;5.85;;;2.65;;
58470;SDS011;44258;51.288;12.068;2023-03-19T13:22:05;7.30;;;3.50;;
58470;SDS011;44258;51.288;12.068;2023-03-19T13:24:36;5.78;;;2.50;;
58470;SDS011;44258;51.288;12.068;2023-03-19T13:27:05;5.68;;;2.72;;
58470;SDS011;44258;51.288;12.068;2023-03-19T13:29:50;6.25;;;2.50;;
58470;SDS011;44258;51.288;12.068;2023-03-19T13:32:22;6.45;;;2.80;;
58470;SDS011;44258;51.288;12.068;2023-03-19T13:35:05;7.72;;;3.40;;
58470;SDS011;44258;51.288;12.068;2023-03-19T13:37:39;7.68;;;3.58;;
58470;SDS011;44258;51.288;12.068;2023-03-19T13:43:04;6.32;;;2.95;;
58470;SDS011;44258;51.288;12.068;2023-03-19T13:45:50;8.45;;;3.30;;
58470;SDS011;44258;51.288;12.068;2023-03-19T13:48:22;6.95;;;2.75;;
58470;SDS011;44258;51.288;12.068;2023-03-19T13:51:02;7.30;;;2.95;;
58470;SDS011;44258;51.288;12.068;2023-03-19T13:53:34;7.45;;;3.10;;
58470;SDS011;44258;51.288;12.068;2023-03-19T13:56:04;9.23;;;3.10;;
58470;SDS011;44258;51.288;12.068;2023-03-19T13:58:44;7.60;;;3.70;;
58470;SDS011;44258;51.288;12.068;2023-03-19T14:04:02;7.57;;;3.20;;
58470;SDS011;44258;51.288;12.068;2023-03-19T14:06:37;7.75;;;3.00;;
58470;SDS011;44258;51.288;12.068;2023-03-19T14:12:07;6.95;;;3.40;;
58470;SDS011;44258;51.288;12.068;2023-03-19T14:14:41;9.27;;;3.58;;
58470;SDS011;44258;51.288;12.068;2023-03-19T14:17:18;7.93;;;3.53;;
58470;SDS011;44258;51.288;12.068;2023-03-19T14:19:49;8.73;;;3.45;;
58470;SDS011;44258;51.288;12.068;2023-03-19T14:22:20;8.43;;;3.58;;
58470;SDS011;44258;51.288;12.068;2023-03-19T14:24:55;8.95;;;3.33;;
58470;SDS011;44258;51.288;12.068;2023-03-19T14:27:31;7.13;;;3.03;;
58470;SDS011;44258;51.288;12.068;2023-03-19T14:30:01;7.20;;;3.08;;
58470;SDS011;44258;51.288;12.068;2023-03-19T14:32:36;8.00;;;2.97;;
58470;SDS011;44258;51.288;12.068;2023-03-19T14:35:27;8.73;;;3.35;;
58470;SDS011;44258;51.288;12.068;2023-03-19T14:38:00;7.00;;;2.92;;
58470;SDS011;44258;51.288;12.068;2023-03-19T14:40:37;6.57;;;2.95;;
58470;SDS011;44258;51.288;12.068;2023-03-19T14:43:14;7.45;;;2.65;;
58470;SDS011;44258;51.288;12.068;2023-03-19T14:45:51;5.93;;;2.90;;
58470;SDS011;44258;51.288;12.068;2023-03-19T14:51:47;6.95;;;3.30;;
58470;SDS011;44258;51.288;12.068;2023-03-19T14:54:24;8.43;;;3.80;;
58470;SDS011;44258;51.288;12.068;2023-03-19T14:57:04;9.25;;;4.65;;
58470;SDS011;44258;51.288;12.068;2023-03-19T14:59:35;9.57;;;4.68;;
58470;SDS011;44258;51.288;12.068;2023-03-19T15:02:17;8.68;;;4.45;;
58470;SDS011;44258;51.288;12.068;2023-03-19T15:04:51;9.95;;;4.45;;
58470;SDS011;44258;51.288;12.068;2023-03-19T15:07:20;9.85;;;4.38;;
58470;SDS011;44258;51.288;12.068;2023-03-19T15:09:58;11.45;;;6.15;;
58470;SDS011;44258;51.288;12.068;2023-03-19T15:15:50;9.40;;;4.10;;
58470;SDS011;44258;51.288;12.068;2023-03-19T15:18:30;7.35;;;3.50;;
58470;SDS011;44258;51.288;12.068;2023-03-19T15:20:57;6.75;;;3.58;;
58470;SDS011;44258;51.288;12.068;2023-03-19T15:23:25;6.20;;;3.10;;
58470;SDS011;44258;51.288;12.068;2023-03-19T15:26:10;8.55;;;3.40;;
58470;SDS011;44258;51.288;12.068;2023-03-19T15:28:45;6.60;;;3.08;;
58470;SDS011;44258;51.288;12.068;2023-03-19T15:31:13;10.07;;;3.90;;
58470;SDS011;44258;51.288;12.068;2023-03-19T15:33:41;7.63;;;3.70;;
58470;SDS011;44258;51.288;12.068;2023-03-19T15:36:10;12.27;;;4.57;;
58470;SDS011;44258;51.288;12.068;2023-03-19T15:38:47;10.80;;;4.85;;
58470;SDS011;44258;51.288;12.068;2023-03-19T15:41:20;7.45;;;3.50;;
58470;SDS011;44258;51.288;12.068;2023-03-19T15:43:49;7.50;;;3.17;;
58470;SDS011;44258;51.288;12.068;2023-03-19T15:46:17;8.90;;;4.53;;
58470;SDS011;44258;51.288;12.068;2023-03-19T15:48:53;10.70;;;5.50;;
58470;SDS011;44258;51.288;12.068;2023-03-19T15:51:28;8.93;;;3.72;;
58470;SDS011;44258;51.288;12.068;2023-03-19T15:53:57;8.98;;;3.45;;
58470;SDS011;44258;51.288;12.068;2023-03-19T15:56:30;10.32;;;5.25;;
58470;SDS011;44258;51.288;12.068;2023-03-19T15:58:58;7.43;;;3.20;;
58470;SDS011;44258;51.288;12.068;2023-03-19T16:01:25;7.43;;;3.20;;
58470;SDS011;44258;51.288;12.068;2023-03-19T16:03:54;7.00;;;2.78;;
58470;SDS011;44258;51.288;12.068;2023-03-19T16:06:24;7.13;;;2.90;;
58470;SDS011;44258;51.288;12.068;2023-03-19T16:09:04;7.53;;;3.03;;
58470;SDS011;44258;51.288;12.068;2023-03-19T16:11:41;7.43;;;2.90;;
58470;SDS011;44258;51.288;12.068;2023-03-19T16:14:20;6.85;;;2.90;;
58470;SDS011;44258;51.288;12.068;2023-03-19T16:16:50;8.73;;;3.38;;
58470;SDS011;44258;51.288;12.068;2023-03-19T16:19:30;7.18;;;3.55;;
58470;SDS011;44258;51.288;12.068;2023-03-19T16:21:59;8.35;;;3.75;;
58470;SDS011;44258;51.288;12.068;2023-03-19T16:24:29;9.13;;;3.40;;
58470;SDS011;44258;51.288;12.068;2023-03-19T16:27:05;9.13;;;3.72;;
58470;SDS011;44258;51.288;12.068;2023-03-19T16:29:37;8.30;;;3.90;;
58470;SDS011;44258;51.288;12.068;2023-03-19T16:34:44;6.32;;;2.70;;
58470;SDS011;44258;51.288;12.068;2023-03-19T16:37:25;8.80;;;3.67;;
58470;SDS011;44258;51.288;12.068;2023-03-19T16:40:31;6.75;;;3.25;;
58470;SDS011;44258;51.288;12.068;2023-03-19T16:43:07;9.50;;;3.90;;
58470;SDS011;44258;51.288;12.068;2023-03-19T16:45:42;9.85;;;4.55;;
58470;SDS011;44258;51.288;12.068;2023-03-19T16:48:09;9.48;;;3.88;;
58470;SDS011;44258;51.288;12.068;2023-03-19T16:50:37;8.93;;;3.97;;
58470;SDS011;44258;51.288;12.068;2023-03-19T16:53:05;8.23;;;3.55;;
58470;SDS011;44258;51.288;12.068;2023-03-19T16:55:44;8.07;;;3.75;;
58470;SDS011;44258;51.288;12.068;2023-03-19T16:58:13;6.28;;;3.15;;
58470;SDS011;44258;51.288;12.068;2023-03-19T17:00:41;9.23;;;3.78;;
58470;SDS011;44258;51.288;12.068;2023-03-19T17:03:09;9.65;;;4.47;;
58470;SDS011;44258;51.288;12.068;2023-03-19T17:05:38;25.38;;;13.60;;
58470;SDS011;44258;51.288;12.068;2023-03-19T17:08:05;12.57;;;6.60;;
58470;SDS011;44258;51.288;12.068;2023-03-19T17:10:33;10.43;;;5.32;;
58470;SDS011;44258;51.288;12.068;2023-03-19T17:13:02;12.20;;;6.00;;
58470;SDS011;44258;51.288;12.068;2023-03-19T17:15:32;12.57;;;7.03;;
58470;SDS011;44258;51.288;12.068;2023-03-19T17:18:02;12.70;;;6.78;;
58470;SDS011;44258;51.288;12.068;2023-03-19T17:20:36;14.48;;;6.65;;
58470;SDS011;44258;51.288;12.068;2023-03-19T17:23:08;11.23;;;6.03;;
58470;SDS011;44258;51.288;12.068;2023-03-19T17:25:36;9.95;;;4.82;;